Terminal Aerodrome Forecast
Issued by NWS

Home | Current Version | Previous Version | Graphics & Text | Print | Product List | Glossary On
Versions: 1 2 3 4 5 6 7 8 9 10 11 12 13 14 15 16 17 18
000
FTUS43 KGRB 291720
TAFATW
TAF
KATW 291720Z 2918/3018 21007KT P6SM VCSH BKN035 BKN070
      TEMPO 2918/2922 BKN020
     FM300000 20006KT P6SM SCT050 BKN080
      TEMPO 3003/3006 -SHRA BKN050
     FM300600 VRB03KT P6SM VCSH SCT012 BKN035
     FM301000 VRB03KT 5SM BR VCSH SCT010 BKN035
      TEMPO 3010/3013 3SM BR BKN010
     FM301400 01005KT P6SM SCT012 BKN035=

USA.gov is the U.S. government's official web portal to all federal, state and local government web resources and services.